Report METAR

 

LIMJ -
Dati ricevuti: 27/09/2021 09:50
Few Clouds
Few Clouds
 Vento da NNE
Vento: NNE 7 km/h
Temperatura: 21°C
P.to Rugiada: 16°C
Umidità: 73%
Barometro: 1017 hPa
Nuvole: Few Clouds
Visibility: 10 km
Cloud details: Few Clouds 762 m
2021/09/27 07:50 LIMJ 270750Z 03004KT 9999 FEW025 21/16 Q1017